createdAt,value
2022-09-28T00:00:20.762Z,92032.63
2022-09-28T00:02:48.412Z,92028.81
2022-09-28T00:05:15.147Z,92028.72
2022-09-28T00:07:42.039Z,92026.41
2022-09-28T00:10:08.679Z,92031.59
2022-09-28T00:12:35.160Z,92028.28
2022-09-28T00:15:02.528Z,92023.66
2022-09-28T00:17:29.331Z,92014.16
2022-09-28T00:19:56.720Z,92005.25
2022-09-28T00:22:23.260Z,92015.91
2022-09-28T00:24:50.059Z,91999.88
2022-09-28T00:27:18.008Z,91999.47
2022-09-28T00:29:44.615Z,91989.81
2022-09-28T00:32:11.722Z,91976.47
2022-09-28T00:34:40.634Z,91969.88
2022-09-28T00:37:10.569Z,91977.22
2022-09-28T00:39:38.410Z,91965.78
2022-09-28T00:42:11.127Z,91975.00
2022-09-28T00:44:46.379Z,91964.38
2022-09-28T00:47:12.910Z,91951.78
2022-09-28T00:49:45.239Z,91957.25
2022-09-28T00:52:14.387Z,91956.47
2022-09-28T00:54:43.244Z,91950.03
2022-09-28T00:57:09.818Z,91933.97
2022-09-28T00:59:36.336Z,91945.25
2022-09-28T01:02:03.763Z,91944.09
2022-09-28T01:04:31.019Z,91941.88
2022-09-28T01:06:58.691Z,91936.03
2022-09-28T01:09:25.870Z,91931.03
2022-09-28T01:11:52.373Z,91928.56
2022-09-28T01:14:19.510Z,91914.25
2022-09-28T01:16:51.995Z,91905.16
2022-09-28T01:19:33.958Z,91903.06
2022-09-28T01:22:00.455Z,91901.44
2022-09-28T01:24:40.901Z,91907.53
2022-09-28T01:27:28.092Z,91891.19
2022-09-28T01:30:01.656Z,91876.09
2022-09-28T01:32:40.312Z,91893.25
2022-09-28T01:35:06.833Z,91883.22
2022-09-28T01:37:44.150Z,91872.06
2022-09-28T01:40:11.988Z,91873.63
2022-09-28T01:42:39.631Z,91862.13
2022-09-28T01:45:09.861Z,91862.50
2022-09-28T01:47:38.406Z,91854.53
2022-09-28T01:50:07.283Z,91851.41
2022-09-28T01:52:46.734Z,91843.44
2022-09-28T01:55:18.584Z,91860.84
2022-09-28T01:57:48.695Z,91851.84
2022-09-28T02:00:16.091Z,91839.63
2022-09-28T02:02:48.438Z,91845.28
2022-09-28T02:05:24.095Z,91844.97
2022-09-28T02:07:56.646Z,91834.34
2022-09-28T02:10:24.764Z,91831.03
2022-09-28T02:13:12.275Z,91817.22
2022-09-28T02:15:38.973Z,91812.16
2022-09-28T02:18:05.755Z,91807.41
2022-09-28T02:20:34.366Z,91805.72
2022-09-28T02:23:02.758Z,91801.84
2022-09-28T02:25:35.783Z,91792.16
2022-09-28T02:28:04.632Z,91785.28
2022-09-28T02:30:31.927Z,91792.84
2022-09-28T02:33:04.124Z,91782.38
2022-09-28T02:35:30.656Z,91789.19
2022-09-28T02:37:57.573Z,91777.03
2022-09-28T02:40:26.545Z,91769.94
2022-09-28T02:43:12.787Z,91775.06
2022-09-28T02:45:42.346Z,91768.00
2022-09-28T02:48:14.774Z,91778.28
2022-09-28T02:50:56.258Z,91775.91
2022-09-28T02:53:41.582Z,91771.97
2022-09-28T02:56:10.827Z,91779.50
2022-09-28T02:58:55.913Z,91760.34
2022-09-28T03:01:38.933Z,91773.88
2022-09-28T03:04:16.910Z,91769.84
2022-09-28T03:06:48.595Z,91766.56
2022-09-28T03:09:20.359Z,91747.59
2022-09-28T03:11:53.506Z,91761.41
2022-09-28T03:14:20.196Z,91748.47
2022-09-28T03:16:46.706Z,91756.88
2022-09-28T03:19:13.407Z,91775.53
2022-09-28T03:21:40.187Z,91760.84
2022-09-28T03:24:06.894Z,91770.56
2022-09-28T03:26:33.624Z,91754.22
2022-09-28T03:29:00.229Z,91743.16
2022-09-28T03:31:26.790Z,91741.69
2022-09-28T03:33:53.332Z,91755.84
2022-09-28T03:36:19.973Z,91754.91
2022-09-28T03:38:46.480Z,91724.13
2022-09-28T03:41:12.984Z,91730.16
2022-09-28T03:43:39.467Z,91738.81
2022-09-28T03:46:06.133Z,91740.28
2022-09-28T03:48:33.934Z,91747.22
2022-09-28T03:51:01.627Z,91739.81
2022-09-28T03:53:29.624Z,91737.53
2022-09-28T03:55:56.587Z,91743.34
2022-09-28T03:58:23.079Z,91730.34
2022-09-28T04:00:50.189Z,91732.88
2022-09-28T04:03:16.830Z,91738.69
2022-09-28T04:05:50.550Z,91740.25
2022-09-28T04:08:17.407Z,91726.50
2022-09-28T04:10:43.907Z,91733.94
2022-09-28T04:13:10.402Z,91723.06
2022-09-28T04:15:38.460Z,91720.84
2022-09-28T04:18:09.259Z,91722.22
2022-09-28T04:20:35.787Z,91717.84
2022-09-28T04:23:02.314Z,91722.69
2022-09-28T04:25:28.902Z,91732.66
2022-09-28T04:28:13.900Z,91728.63
2022-09-28T04:30:40.729Z,91724.69
2022-09-28T04:33:07.208Z,91731.50
2022-09-28T04:35:33.723Z,91737.66
2022-09-28T04:38:00.215Z,91722.78
2022-09-28T04:40:26.708Z,91731.50
2022-09-28T04:42:56.168Z,91741.13
2022-09-28T04:45:23.400Z,91742.34
2022-09-28T04:47:49.955Z,91733.53
2022-09-28T04:50:16.747Z,91726.53
2022-09-28T04:52:43.288Z,91732.78
2022-09-28T04:55:11.994Z,91741.75
2022-09-28T04:57:38.499Z,91738.00
2022-09-28T05:00:05.513Z,91737.06
2022-09-28T05:02:32.349Z,91738.56
2022-09-28T05:04:59.036Z,91744.06
2022-09-28T05:07:26.275Z,91750.50
2022-09-28T05:09:53.197Z,91750.53
2022-09-28T05:12:19.638Z,91754.75
2022-09-28T05:14:46.230Z,91759.97
2022-09-28T05:17:12.723Z,91767.94
2022-09-28T05:19:39.247Z,91775.34
2022-09-28T05:22:07.826Z,91779.19
2022-09-28T05:24:34.264Z,91764.50
2022-09-28T05:27:00.794Z,91756.53
2022-09-28T05:29:31.914Z,91773.06
2022-09-28T05:32:01.461Z,91772.41
2022-09-28T05:34:28.244Z,91773.41
2022-09-28T05:36:54.832Z,91758.78
2022-09-28T05:39:21.403Z,91767.88
2022-09-28T05:41:48.216Z,91759.16
2022-09-28T05:44:14.785Z,91770.66
2022-09-28T05:46:41.418Z,91759.13
2022-09-28T05:49:07.862Z,91757.16
2022-09-28T05:51:34.341Z,91759.00
2022-09-28T05:54:05.640Z,91750.81
2022-09-28T05:56:32.980Z,91753.16
2022-09-28T05:58:59.540Z,91742.13
2022-09-28T06:01:26.300Z,91744.31
2022-09-28T06:03:52.878Z,91744.75
2022-09-28T06:06:19.380Z,91744.88
2022-09-28T06:08:48.301Z,91741.28
2022-09-28T06:11:14.738Z,91735.53
2022-09-28T06:13:41.208Z,91745.84
2022-09-28T06:16:08.213Z,91744.59
2022-09-28T06:18:35.183Z,91744.72
2022-09-28T06:21:02.768Z,91744.47
2022-09-28T06:23:29.249Z,91738.84
2022-09-28T06:25:55.796Z,91755.03
2022-09-28T06:28:22.331Z,91749.56
2022-09-28T06:30:48.921Z,91754.56
2022-09-28T06:33:16.247Z,91760.22
2022-09-28T06:35:42.804Z,91767.47
2022-09-28T06:38:09.408Z,91757.13
2022-09-28T06:40:36.346Z,91772.34
2022-09-28T06:43:09.784Z,91769.84
2022-09-28T06:45:36.898Z,91762.28
2022-09-28T06:48:04.085Z,91762.78
2022-09-28T06:50:35.903Z,91778.03
2022-09-28T06:53:02.370Z,91764.59
2022-09-28T06:55:28.974Z,91775.44
2022-09-28T06:57:59.296Z,91782.13
2022-09-28T07:00:27.167Z,91783.75
2022-09-28T07:02:53.764Z,91793.13
2022-09-28T07:05:27.071Z,91789.63
2022-09-28T07:07:56.975Z,91798.69
2022-09-28T07:10:27.843Z,91785.28
2022-09-28T07:12:55.308Z,91775.63
2022-09-28T07:15:22.163Z,91778.19
2022-09-28T07:18:00.305Z,91776.78
2022-09-28T07:20:28.820Z,91780.25
2022-09-28T07:22:56.033Z,91781.25
2022-09-28T07:25:24.064Z,91782.19
2022-09-28T07:27:50.620Z,91778.75
2022-09-28T07:30:17.200Z,91771.41
2022-09-28T07:32:48.396Z,91769.06
2022-09-28T07:35:15.679Z,91771.03
2022-09-28T07:37:42.163Z,91772.28
2022-09-28T07:40:28.017Z,91779.66
2022-09-28T07:42:54.731Z,91774.59
2022-09-28T07:45:23.772Z,91768.97
2022-09-28T07:47:50.790Z,91776.31
2022-09-28T07:50:18.002Z,91784.84
2022-09-28T07:52:45.836Z,91781.94
2022-09-28T07:55:12.564Z,91788.28
2022-09-28T07:57:39.943Z,91794.81
2022-09-28T08:00:08.418Z,91787.13
2022-09-28T08:02:36.948Z,91788.72
2022-09-28T08:05:03.613Z,91784.47
2022-09-28T08:07:30.219Z,91781.03
2022-09-28T08:09:56.818Z,91783.31
2022-09-28T08:12:23.543Z,91778.50
2022-09-28T08:14:52.188Z,91798.84
2022-09-28T08:17:18.894Z,91787.91
2022-09-28T08:20:03.723Z,91793.66
2022-09-28T08:22:32.228Z,91791.94
2022-09-28T08:24:59.319Z,91789.16
2022-09-28T08:27:25.814Z,91791.03
2022-09-28T08:29:52.269Z,91798.56
2022-09-28T08:32:19.487Z,91795.91
2022-09-28T08:34:46.018Z,91793.97
2022-09-28T08:37:12.552Z,91789.03
2022-09-28T08:39:39.233Z,91788.78
2022-09-28T08:42:41.139Z,91790.13
2022-09-28T08:45:19.339Z,91792.09
2022-09-28T08:48:11.993Z,91787.66
2022-09-28T08:50:53.395Z,91789.50
2022-09-28T08:53:38.663Z,91798.34
2022-09-28T08:56:07.509Z,91787.50
2022-09-28T08:58:37.736Z,91794.22
2022-09-28T09:01:06.633Z,91795.47
2022-09-28T09:03:35.847Z,91793.78
2022-09-28T09:06:21.623Z,91792.94
2022-09-28T09:08:57.471Z,91806.47
2022-09-28T09:11:29.842Z,91804.16
2022-09-28T09:14:05.595Z,91796.00
2022-09-28T09:16:49.683Z,91818.03
2022-09-28T09:19:20.310Z,91821.97
2022-09-28T09:21:46.799Z,91816.69
2022-09-28T09:24:16.413Z,91820.44
2022-09-28T09:26:43.435Z,91821.63
2022-09-28T09:29:09.958Z,91816.06
2022-09-28T09:31:38.168Z,91839.31
2022-09-28T09:34:23.583Z,91837.34
2022-09-28T09:37:01.988Z,91842.56
2022-09-28T09:39:28.395Z,91830.34
2022-09-28T09:42:04.046Z,91826.78
2022-09-28T09:44:44.768Z,91820.81
2022-09-28T09:47:14.843Z,91816.66
2022-09-28T09:49:50.333Z,91822.19
2022-09-28T09:52:38.814Z,91819.63
2022-09-28T09:55:15.336Z,91806.97
2022-09-28T09:57:44.624Z,91811.16
2022-09-28T10:00:12.896Z,91816.53
2022-09-28T10:02:39.548Z,91815.00
2022-09-28T10:05:06.057Z,91809.94
2022-09-28T10:07:32.539Z,91805.69
2022-09-28T10:10:01.443Z,91801.03
2022-09-28T10:12:28.766Z,91811.81
2022-09-28T10:14:56.003Z,91805.59
2022-09-28T10:17:27.192Z,91801.34
2022-09-28T10:19:54.955Z,91792.19
2022-09-28T10:22:23.129Z,91788.72
2022-09-28T10:24:51.164Z,91790.75
2022-09-28T10:27:19.690Z,91788.59
2022-09-28T10:29:50.970Z,91791.72
2022-09-28T10:32:28.300Z,91789.97
2022-09-28T10:35:11.412Z,91775.00
2022-09-28T10:37:49.289Z,91777.50
2022-09-28T10:40:43.455Z,91786.03
2022-09-28T10:43:25.465Z,91767.63
2022-09-28T10:46:13.939Z,91776.06
2022-09-28T10:48:49.824Z,91779.44
2022-09-28T10:51:16.528Z,91759.38
2022-09-28T10:53:57.207Z,91740.84
2022-09-28T10:56:27.063Z,91747.31
2022-09-28T10:58:53.725Z,91747.84
2022-09-28T11:01:23.857Z,91737.09
2022-09-28T11:04:11.800Z,91758.16
2022-09-28T11:06:39.321Z,91742.06
2022-09-28T11:09:16.104Z,91731.59
2022-09-28T11:11:43.171Z,91724.81
2022-09-28T11:14:26.279Z,91686.88
2022-09-28T11:17:11.760Z,91724.00
2022-09-28T11:19:38.347Z,91724.63
2022-09-28T11:22:20.177Z,91732.78
2022-09-28T11:24:47.340Z,91716.22
2022-09-28T11:27:25.341Z,91720.09
2022-09-28T11:29:58.847Z,91719.00
2022-09-28T11:32:28.946Z,91721.84
2022-09-28T11:35:00.009Z,91729.81
2022-09-28T11:37:46.863Z,91732.97
2022-09-28T11:40:13.359Z,91728.25
2022-09-28T11:42:48.097Z,91733.41
2022-09-28T11:45:40.855Z,91749.28
2022-09-28T11:48:11.147Z,91727.41
2022-09-28T11:50:50.018Z,91737.44
2022-09-28T11:53:20.390Z,91722.31
2022-09-28T11:55:50.387Z,91722.88
2022-09-28T11:58:25.924Z,91707.88
2022-09-28T12:01:06.864Z,91707.66
2022-09-28T12:03:40.891Z,91698.81
2022-09-28T12:06:13.708Z,91694.47
2022-09-28T12:08:43.456Z,91698.13
2022-09-28T12:11:22.241Z,91703.47
2022-09-28T12:13:52.859Z,91715.25
2022-09-28T12:19:25.761Z,91699.94
2022-09-28T12:21:56.856Z,91690.34
2022-09-28T12:24:28.649Z,91693.47
2022-09-28T12:26:59.250Z,91688.16
2022-09-28T12:29:28.860Z,91689.53
2022-09-28T12:32:09.815Z,91682.44
2022-09-28T12:34:36.512Z,91693.88
2022-09-28T12:37:02.920Z,91687.91
2022-09-28T12:39:53.614Z,91699.16
2022-09-28T12:42:41.349Z,91705.78
2022-09-28T12:45:20.431Z,91704.59
2022-09-28T12:47:58.121Z,91701.06
2022-09-28T12:50:44.010Z,91700.16
2022-09-28T12:53:13.927Z,91703.06
2022-09-28T12:55:57.609Z,91705.41
2022-09-28T12:58:26.803Z,91696.97
2022-09-28T13:01:04.575Z,91710.94
2022-09-28T13:03:42.544Z,91725.63
2022-09-28T13:06:15.362Z,91731.66
2022-09-28T13:09:01.382Z,91713.06
2022-09-28T13:11:42.967Z,91745.44
2022-09-28T13:14:09.863Z,91752.13
2022-09-28T13:16:36.391Z,91753.72
2022-09-28T13:19:20.250Z,91764.78
2022-09-28T13:22:07.099Z,91733.75
2022-09-28T13:24:37.180Z,91736.13
2022-09-28T13:27:07.592Z,91739.34
2022-09-28T13:29:34.900Z,91743.81
2022-09-28T13:32:03.201Z,91747.03
2022-09-28T13:34:33.418Z,91740.97
2022-09-28T13:37:19.848Z,91733.53
2022-09-28T13:39:46.392Z,91738.91
2022-09-28T13:42:22.912Z,91741.63
2022-09-28T13:45:09.551Z,91746.13
2022-09-28T13:47:54.511Z,91740.53
2022-09-28T13:50:40.004Z,91740.69
2022-09-28T13:53:25.126Z,91752.88
2022-09-28T13:56:03.538Z,91746.63
2022-09-28T13:58:33.515Z,91754.13
2022-09-28T14:01:04.840Z,91749.88
2022-09-28T14:03:50.211Z,91751.44
2022-09-28T14:06:25.636Z,91753.34
2022-09-28T14:08:52.310Z,91751.44
2022-09-28T14:11:40.597Z,91764.28
2022-09-28T14:14:14.273Z,91782.50
2022-09-28T14:16:41.620Z,91778.28
2022-09-28T14:19:12.725Z,91775.97
2022-09-28T14:21:42.295Z,91768.31
2022-09-28T14:24:27.396Z,91777.69
2022-09-28T14:27:12.793Z,91762.53
2022-09-28T14:29:39.528Z,91760.38
2022-09-28T14:32:09.089Z,91749.91
2022-09-28T14:34:42.082Z,91753.72
2022-09-28T14:37:50.512Z,91759.91
2022-09-28T14:40:52.486Z,91761.75
2022-09-28T14:43:25.006Z,91767.56
2022-09-28T14:46:11.609Z,91760.13
2022-09-28T14:48:43.934Z,91764.03
2022-09-28T14:51:26.273Z,91761.88
2022-09-28T14:53:53.406Z,91755.88
2022-09-28T14:56:20.530Z,91751.31
2022-09-28T14:58:51.911Z,91746.22
2022-09-28T15:01:20.359Z,91760.13
2022-09-28T15:03:48.352Z,91781.44
2022-09-28T15:06:16.379Z,91782.34
2022-09-28T15:08:42.900Z,91794.28
2022-09-28T15:11:18.074Z,91789.69
2022-09-28T15:13:44.610Z,91778.19
2022-09-28T15:16:13.223Z,91778.25
2022-09-28T15:18:51.766Z,91794.59
2022-09-28T15:21:18.917Z,91780.66
2022-09-28T15:23:45.727Z,91779.38
2022-09-28T15:26:44.427Z,91778.03
2022-09-28T15:29:17.372Z,91776.84
2022-09-28T15:31:44.862Z,91785.94
2022-09-28T15:34:50.114Z,91789.72
2022-09-28T15:37:29.040Z,91788.34
2022-09-28T15:39:57.356Z,91791.81
2022-09-28T15:42:23.952Z,91797.00
2022-09-28T15:45:02.345Z,91802.56
2022-09-28T15:47:29.836Z,91803.28
2022-09-28T15:49:58.431Z,91787.94
2022-09-28T15:52:31.135Z,91792.75
2022-09-28T15:54:57.773Z,91802.41
2022-09-28T15:57:38.590Z,91791.03
2022-09-28T16:00:07.355Z,91799.88
2022-09-28T16:02:35.251Z,91814.09
2022-09-28T16:05:02.220Z,91823.25
2022-09-28T16:07:33.219Z,91824.22
2022-09-28T16:10:11.612Z,91835.03
2022-09-28T16:12:38.131Z,91828.34
2022-09-28T16:15:06.648Z,91828.09
2022-09-28T16:17:35.102Z,91838.44
2022-09-28T16:20:03.741Z,91839.66
2022-09-28T16:22:32.733Z,91838.78
2022-09-28T16:25:00.865Z,91847.09
2022-09-28T16:27:30.154Z,91843.53
2022-09-28T16:30:15.477Z,91846.94
2022-09-28T16:32:50.334Z,91840.75
2022-09-28T16:35:17.328Z,91841.66
2022-09-28T16:37:45.256Z,91833.63
2022-09-28T16:40:12.643Z,91844.78
2022-09-28T16:42:40.099Z,91851.22
2022-09-28T16:45:07.775Z,91851.69
2022-09-28T16:47:34.813Z,91849.13
2022-09-28T16:50:03.911Z,91851.78
2022-09-28T16:52:49.163Z,91855.66
2022-09-28T16:55:38.882Z,91852.81
2022-09-28T16:58:04.603Z,91858.69
2022-09-28T17:00:31.862Z,91864.63
2022-09-28T17:02:58.592Z,91806.69
2022-09-28T17:05:25.499Z,91877.69
2022-09-28T17:08:02.093Z,91874.75
2022-09-28T17:10:50.026Z,91870.88
2022-09-28T17:13:31.513Z,91880.66
2022-09-28T17:15:58.675Z,91882.97
2022-09-28T17:18:25.805Z,91879.75
2022-09-28T17:20:55.027Z,91889.16
2022-09-28T17:23:21.522Z,91900.88
2022-09-28T17:25:48.088Z,91906.53
2022-09-28T17:28:19.969Z,91909.88
2022-09-28T17:30:46.666Z,91920.06
2022-09-28T17:33:13.380Z,91916.69
2022-09-28T17:35:40.464Z,91930.22
2022-09-28T17:38:07.006Z,91929.34
2022-09-28T17:40:33.668Z,91935.06
2022-09-28T17:43:00.563Z,91935.41
2022-09-28T17:45:28.387Z,91945.25
2022-09-28T17:47:55.532Z,91956.84
2022-09-28T17:50:23.980Z,91965.03
2022-09-28T17:52:52.302Z,91963.16
2022-09-28T17:55:19.920Z,91967.53
2022-09-28T17:57:46.495Z,91974.84
2022-09-28T18:00:13.832Z,91974.47
2022-09-28T18:02:40.969Z,91966.81
2022-09-28T18:05:07.737Z,91971.56
2022-09-28T18:07:34.440Z,91974.94
2022-09-28T18:10:00.962Z,91972.44
2022-09-28T18:12:27.561Z,91975.44
2022-09-28T18:14:54.124Z,91986.22
2022-09-28T18:17:20.607Z,91987.59
2022-09-28T18:19:47.086Z,91990.13
2022-09-28T18:22:13.663Z,91986.00
2022-09-28T18:24:40.331Z,91989.91
2022-09-28T18:27:06.781Z,91996.06
2022-09-28T18:29:33.721Z,91988.19
2022-09-28T18:32:00.473Z,91998.38
2022-09-28T18:34:27.022Z,91998.31
2022-09-28T18:36:53.819Z,91997.34
2022-09-28T18:39:20.535Z,91993.91
2022-09-28T18:41:47.210Z,92007.41
2022-09-28T18:44:13.684Z,92011.81
2022-09-28T18:46:41.852Z,92013.41
2022-09-28T18:49:08.474Z,92003.31
2022-09-28T18:51:35.030Z,92006.22
2022-09-28T18:54:07.235Z,92011.16
2022-09-28T18:56:35.282Z,92011.59
2022-09-28T18:59:01.827Z,92010.91
2022-09-28T19:01:30.447Z,92006.16
2022-09-28T19:04:01.800Z,92008.44
2022-09-28T19:06:28.886Z,92000.81
2022-09-28T19:08:55.883Z,91995.97
2022-09-28T19:11:22.711Z,91994.66
2022-09-28T19:13:49.212Z,91995.09
2022-09-28T19:16:17.249Z,92003.38
2022-09-28T19:18:44.069Z,91991.94
2022-09-28T19:21:11.804Z,91990.56
2022-09-28T19:23:39.016Z,91989.88
2022-09-28T19:26:11.523Z,91993.63
2022-09-28T19:28:38.043Z,91978.53
2022-09-28T19:31:06.027Z,91984.59
2022-09-28T19:33:32.877Z,91977.94
2022-09-28T19:36:01.125Z,91981.31
2022-09-28T19:38:28.744Z,91978.03
2022-09-28T19:40:56.033Z,91978.22
2022-09-28T19:43:22.676Z,91973.53
2022-09-28T19:45:52.334Z,91978.31
2022-09-28T19:48:19.535Z,91978.38
2022-09-28T19:50:54.219Z,91980.28
2022-09-28T19:53:20.707Z,91981.97
2022-09-28T19:55:50.706Z,91975.97
2022-09-28T19:58:17.213Z,91981.63
2022-09-28T20:00:43.679Z,91973.09
2022-09-28T20:03:10.163Z,91972.22
2022-09-28T20:05:38.788Z,91969.22
2022-09-28T20:08:05.288Z,91973.31
2022-09-28T20:10:31.922Z,91971.19
2022-09-28T20:12:58.970Z,91970.81
2022-09-28T20:15:25.536Z,91961.09
2022-09-28T20:17:52.040Z,91971.94
2022-09-28T20:20:18.561Z,91968.91
2022-09-28T20:22:45.134Z,91968.03
2022-09-28T20:25:11.663Z,91974.53
2022-09-28T20:27:39.691Z,91914.44
2022-09-28T20:30:07.004Z,91959.41
2022-09-28T20:32:35.118Z,91961.38
2022-09-28T20:35:01.621Z,91957.19
2022-09-28T20:37:28.272Z,91961.22
2022-09-28T20:39:55.250Z,91955.03
2022-09-28T20:42:21.752Z,91958.38
2022-09-28T20:44:48.308Z,91948.84
2022-09-28T20:47:14.746Z,91949.94
2022-09-28T20:49:41.498Z,91954.94
2022-09-28T20:52:08.641Z,91955.94
2022-09-28T20:54:35.152Z,91951.41
2022-09-28T20:57:01.731Z,91951.00
2022-09-28T20:59:28.675Z,91951.94
2022-09-28T21:01:55.210Z,91962.69
2022-09-28T21:04:21.726Z,91965.53
2022-09-28T21:06:48.221Z,91960.78
2022-09-28T21:09:14.773Z,91964.84
2022-09-28T21:11:41.658Z,91963.88
2022-09-28T21:14:10.135Z,91968.19
2022-09-28T21:16:37.135Z,91969.38
2022-09-28T21:19:03.633Z,91966.19
2022-09-28T21:21:30.323Z,91960.78
2022-09-28T21:23:57.483Z,91948.19
2022-09-28T21:26:25.522Z,91952.44
2022-09-28T21:28:53.477Z,91952.09
2022-09-28T21:31:23.688Z,91953.56
2022-09-28T21:33:54.189Z,91954.25
2022-09-28T21:36:20.727Z,91963.06
2022-09-28T21:38:47.472Z,91953.25
2022-09-28T21:41:17.300Z,91947.66
2022-09-28T21:43:45.339Z,91955.53
2022-09-28T21:46:11.897Z,91944.69
2022-09-28T21:48:38.527Z,91948.88
2022-09-28T21:51:06.565Z,91940.72
2022-09-28T21:53:34.195Z,91929.22
2022-09-28T21:56:01.412Z,91929.69
2022-09-28T21:58:29.210Z,91934.41
2022-09-28T22:01:05.021Z,91938.06
2022-09-28T22:03:32.536Z,91934.41
2022-09-28T22:05:59.221Z,91935.47
2022-09-28T22:08:26.274Z,91929.44
2022-09-28T22:11:01.788Z,91929.69
2022-09-28T22:13:32.200Z,91923.56
2022-09-28T22:15:59.124Z,91924.75
2022-09-28T22:18:29.459Z,91922.94
2022-09-28T22:21:06.517Z,91919.69
2022-09-28T22:23:33.891Z,91920.22
2022-09-28T22:26:01.532Z,91912.00
2022-09-28T22:28:28.858Z,91917.38
2022-09-28T22:30:55.910Z,91922.19
2022-09-28T22:33:22.549Z,91920.47
2022-09-28T22:35:49.110Z,91923.13
2022-09-28T22:38:15.726Z,91921.38
2022-09-28T22:40:46.820Z,91927.38
2022-09-28T22:43:13.424Z,91926.22
2022-09-28T22:45:40.069Z,91920.44
2022-09-28T22:48:07.156Z,91911.19
2022-09-28T22:50:34.248Z,91914.22
2022-09-28T22:53:01.905Z,91915.09
2022-09-28T22:55:29.107Z,91904.94
2022-09-28T22:57:55.734Z,91901.22
2022-09-28T23:00:22.351Z,91893.88
2022-09-28T23:02:48.951Z,91897.09
2022-09-28T23:05:17.036Z,91897.47
2022-09-28T23:07:43.670Z,91898.50
2022-09-28T23:10:10.179Z,91891.56
2022-09-28T23:12:36.667Z,91897.50
2022-09-28T23:15:03.283Z,91889.72
2022-09-28T23:17:29.756Z,91896.78
2022-09-28T23:19:56.252Z,91891.09
2022-09-28T23:22:22.784Z,91883.06
2022-09-28T23:24:49.375Z,91885.28
2022-09-28T23:27:15.879Z,91881.09
2022-09-28T23:29:46.785Z,91886.16
2022-09-28T23:32:13.584Z,91878.00
2022-09-28T23:34:40.358Z,91883.41
2022-09-28T23:37:07.037Z,91875.47
2022-09-28T23:39:33.527Z,91874.00
2022-09-28T23:42:00.315Z,91876.41
2022-09-28T23:44:31.312Z,91871.94
2022-09-28T23:46:57.892Z,91871.53
2022-09-28T23:49:24.436Z,91871.59
2022-09-28T23:51:51.069Z,91865.53
2022-09-28T23:54:18.173Z,91867.44
2022-09-28T23:56:44.655Z,91856.41
2022-09-28T23:59:11.153Z,91861.69
